Time;durP1;ratioP1;P1;durP2;ratioP2;P2;SDS_P1;SDS_P2;PMS_P1;PMS_P2;Temp;Humidity;BMP_temperature;BMP_pressure;BME280_temperature;BME280_humidity;BME280_pressure;Samples;Min_cycle;Max_cycle;Signal;HPM_P1;HPM_P2
2022/03/21 00:00:09;;;;;;;354.47;91.43;;;;;;;3.08;44.32;101557.94;341735;28;1596;-69
2022/03/21 00:00:19;;;;;;;353.55;90.80;;;;;;;3.06;43.45;101559.63;343940;28;1096;-69
2022/03/21 00:00:30;;;;;;;354.70;91.32;;;;;;;3.07;43.70;101556.22;342533;28;1027;-69
2022/03/21 00:00:54;;;;;;;354.20;91.13;;;;;;;3.06;44.23;101549.28;342623;28;939;-69
2022/03/21 00:01:06;;;;;;;353.42;90.85;;;;;;;3.08;43.76;101553.66;341164;28;927;-69
2022/03/21 00:01:17;;;;;;;352.40;90.38;;;;;;;3.10;44.36;101551.97;344044;28;830;-69
2022/03/21 00:01:28;;;;;;;356.27;89.53;;;;;;;3.12;44.05;101557.19;344002;28;929;-69
2022/03/21 00:01:38;;;;;;;355.67;86.72;;;;;;;3.13;44.24;101557.22;343976;28;878;-69
2022/03/21 00:01:51;;;;;;;352.97;86.07;;;;;;;3.14;44.47;101558.09;343611;28;1976;-69
2022/03/21 00:02:01;;;;;;;348.90;86.30;;;;;;;3.15;44.57;101554.66;341157;28;1361;-69
2022/03/21 00:02:12;;;;;;;353.35;89.57;;;;;;;3.17;44.59;101552.97;343928;28;995;-69
2022/03/21 00:02:22;;;;;;;355.20;90.47;;;;;;;3.16;43.97;101556.41;343956;28;862;-69
2022/03/21 00:02:33;;;;;;;356.33;88.85;;;;;;;3.14;44.36;101558.97;344043;28;1042;-69
2022/03/21 00:02:43;;;;;;;353.97;87.77;;;;;;;3.15;44.73;101552.94;343865;28;1999;-69
2022/03/21 00:02:55;;;;;;;353.98;89.20;;;;;;;3.16;44.52;101556.41;339359;29;2065;-69
2022/03/21 00:03:09;;;;;;;351.95;88.60;;;;;;;3.15;44.71;101552.06;339879;29;1260;-69
2022/03/21 00:03:21;;;;;;;350.75;88.57;;;;;;;3.15;44.36;101554.66;343297;28;2006;-69
2022/03/21 00:03:32;;;;;;;354.55;90.47;;;;;;;3.16;44.95;101553.81;342544;28;1492;-69
2022/03/21 00:03:42;;;;;;;356.50;91.72;;;;;;;3.15;44.50;101554.66;339963;29;930;-69
2022/03/21 00:03:52;;;;;;;355.73;90.50;;;;;;;3.14;44.46;101552.91;340679;29;1378;-69
2022/03/21 00:04:03;;;;;;;354.38;90.63;;;;;;;3.13;44.59;101556.34;341329;29;889;-69
2022/03/21 00:04:13;;;;;;;353.93;90.57;;;;;;;3.12;44.96;101554.59;342570;28;997;-69
2022/03/21 00:04:24;;;;;;;354.63;90.13;;;;;;;3.13;44.68;101556.34;342451;28;1220;-69
2022/03/21 00:04:34;;;;;;;353.63;88.70;;;;;;;3.14;44.90;101560.66;343974;28;1493;-69
2022/03/21 00:04:45;;;;;;;352.77;87.68;;;;;;;3.13;44.18;101551.16;343880;28;931;-69
2022/03/21 00:04:55;;;;;;;352.87;87.43;;;;;;;3.12;44.74;101549.41;345124;28;1331;-69
2022/03/21 00:05:06;;;;;;;354.15;87.50;;;;;;;3.11;44.30;101558.00;341760;28;1870;-69
2022/03/21 00:05:17;;;;;;;352.63;87.27;;;;;;;3.10;44.41;101556.28;342508;28;1193;-69
2022/03/21 00:05:30;;;;;;;351.30;88.20;;;;;;;3.10;44.64;101551.09;342627;28;1082;-69
2022/03/21 00:05:40;;;;;;;354.38;92.70;;;;;;;3.11;44.92;101558.00;341170;29;944;-69
2022/03/21 00:05:51;;;;;;;354.93;91.77;;;;;;;3.11;44.46;101552.84;341303;29;943;-69
2022/03/21 00:06:02;;;;;;;354.60;90.95;;;;;;;3.10;44.25;101558.84;342596;28;988;-69
2022/03/21 00:06:12;;;;;;;353.10;89.75;;;;;;;3.11;44.51;101552.84;341278;29;881;-69
2022/03/21 00:06:22;;;;;;;352.97;88.63;;;;;;;3.11;44.95;101555.44;342721;28;857;-69
2022/03/21 00:06:33;;;;;;;354.30;89.50;;;;;;;3.11;44.79;101552.84;343886;28;1220;-70
2022/03/21 00:06:43;;;;;;;354.70;89.87;;;;;;;3.11;44.68;101555.44;339602;28;1705;-70
2022/03/21 00:06:54;;;;;;;356.08;90.60;;;;;;;3.10;44.29;101554.56;340829;29;1965;-70
2022/03/21 00:07:05;;;;;;;355.87;89.20;;;;;;;3.10;44.93;101545.94;341544;28;1744;-70
2022/03/21 00:07:16;;;;;;;356.38;90.53;;;;;;;3.11;44.77;101555.44;342596;28;1693;-70
2022/03/21 00:07:26;;;;;;;355.65;91.07;;;;;;;3.09;44.54;101552.81;343923;28;925;-70
2022/03/21 00:07:36;;;;;;;355.27;92.47;;;;;;;3.09;44.20;101549.34;343347;28;2568;-70
2022/03/21 00:07:47;;;;;;;354.47;90.27;;;;;;;3.09;44.68;101549.34;343871;28;1065;-70
2022/03/21 00:07:57;;;;;;;352.90;90.05;;;;;;;3.05;44.79;101551.00;343923;28;1689;-70
2022/03/21 00:08:09;;;;;;;354.43;90.93;;;;;;;3.04;44.36;101550.97;342428;28;1313;-70
2022/03/21 00:08:20;;;;;;;354.98;90.90;;;;;;;3.05;44.64;101545.81;342405;28;1228;-70
2022/03/21 00:08:30;;;;;;;353.80;88.93;;;;;;;3.05;44.55;101552.72;345317;28;821;-70
2022/03/21 00:08:43;;;;;;;353.70;88.60;;;;;;;3.06;44.11;101538.94;344143;28;945;-70
2022/03/21 00:08:55;;;;;;;356.58;88.60;;;;;;;3.07;43.70;101546.72;343754;28;1316;-70
2022/03/21 00:09:06;;;;;;;356.98;89.28;;;;;;;3.10;44.22;101545.94;342532;28;1508;-70
2022/03/21 00:09:16;;;;;;;354.83;88.43;;;;;;;3.10;44.07;101540.75;342628;28;1028;-70
2022/03/21 00:09:27;;;;;;;353.63;88.80;;;;;;;3.10;43.88;101545.94;341273;29;855;-70
2022/03/21 00:09:37;;;;;;;354.95;89.90;;;;;;;3.10;44.14;101543.34;343929;28;907;-70
2022/03/21 00:09:49;;;;;;;353.73;89.47;;;;;;;3.11;44.23;101537.31;343926;28;1201;-70
2022/03/21 00:10:00;;;;;;;352.95;88.10;;;;;;;3.11;44.17;101542.50;342567;28;1800;-70
2022/03/21 00:10:10;;;;;;;350.73;87.72;;;;;;;3.12;44.22;101539.06;343727;28;2094;-70
2022/03/21 00:10:21;;;;;;;352.73;88.97;;;;;;;3.12;44.08;101544.25;345355;28;1241;-70
2022/03/21 00:10:34;;;;;;;353.05;90.53;;;;;;;3.12;43.92;101539.06;346595;28;1384;-70
2022/03/21 00:10:46;;;;;;;353.90;90.85;;;;;;;3.13;43.56;101541.69;343699;28;1388;-70
2022/03/21 00:10:56;;;;;;;352.77;90.15;;;;;;;3.12;44.44;101541.66;343220;28;889;-70
2022/03/21 00:11:07;;;;;;;352.38;89.25;;;;;;;3.12;44.43;101533.91;345302;28;888;-70
2022/03/21 00:11:18;;;;;;;353.40;89.90;;;;;;;3.12;43.74;101541.66;343911;28;853;-70
2022/03/21 00:11:29;;;;;;;353.33;91.07;;;;;;;3.13;43.56;101540.81;343848;28;899;-70
2022/03/21 00:11:39;;;;;;;354.47;92.07;;;;;;;3.13;43.83;101546.00;343918;28;1210;-70
2022/03/21 00:11:53;;;;;;;352.75;90.47;;;;;;;3.13;43.59;101540.81;342638;28;881;-70
2022/03/21 00:12:04;;;;;;;351.33;88.32;;;;;;;3.12;44.66;101541.66;345284;28;923;-70
2022/03/21 00:12:14;;;;;;;349.17;84.97;;;;;;;3.09;44.23;101539.00;343872;28;973;-70
2022/03/21 00:12:25;;;;;;;347.80;83.93;;;;;;;3.10;44.38;101535.56;343614;28;1977;-70
2022/03/21 00:12:35;;;;;;;351.40;87.20;;;;;;;3.09;43.61;101544.19;344295;28;913;-70
2022/03/21 00:12:46;;;;;;;353.40;89.27;;;;;;;3.08;43.51;101542.44;343793;28;1405;-70
2022/03/21 00:12:56;;;;;;;354.98;90.65;;;;;;;3.07;44.14;101540.69;342992;28;1374;-70
2022/03/21 00:13:07;;;;;;;353.43;89.77;;;;;;;3.08;43.75;101538.13;345209;28;828;-70
2022/03/21 00:13:18;;;;;;;353.23;91.07;;;;;;;3.09;43.83;101544.19;342585;28;1023;-70
2022/03/21 00:13:28;;;;;;;351.83;88.63;;;;;;;3.08;44.05;101545.03;341213;29;1960;-70
2022/03/21 00:13:39;;;;;;;349.38;86.95;;;;;;;3.09;43.58;101539.00;342522;28;846;-70
2022/03/21 00:13:53;;;;;;;352.67;85.70;;;;;;;3.09;43.70;101539.00;342631;28;937;-70
2022/03/21 00:14:04;;;;;;;355.42;87.15;;;;;;;3.08;44.08;101534.66;342566;28;1506;-70
2022/03/21 00:14:15;;;;;;;355.08;87.18;;;;;;;3.08;43.88;101538.13;342642;28;907;-70
2022/03/21 00:14:25;;;;;;;352.05;87.80;;;;;;;3.10;44.29;101545.94;342395;28;1183;-70
2022/03/21 00:14:35;;;;;;;350.70;88.13;;;;;;;3.09;43.82;101546.75;343523;28;1200;-70
2022/03/21 00:14:46;;;;;;;349.20;88.30;;;;;;;3.07;44.00;101535.50;341178;28;1826;-70
2022/03/21 00:14:57;;;;;;;349.27;87.30;;;;;;;3.06;43.77;101552.75;341318;29;984;-70
2022/03/21 00:15:10;;;;;;;347.83;85.97;;;;;;;3.07;43.47;101545.84;343197;28;1622;-70
2022/03/21 00:15:22;;;;;;;347.63;86.40;;;;;;;3.08;43.40;101547.59;342612;28;976;-70
2022/03/21 00:15:33;;;;;;;351.83;88.43;;;;;;;3.08;43.82;101545.03;342620;28;1121;-70
2022/03/21 00:15:44;;;;;;;353.08;89.38;;;;;;;3.07;44.08;101545.84;339584;29;1973;-70
2022/03/21 00:15:54;;;;;;;353.23;90.28;;;;;;;3.06;43.73;101544.97;342674;28;932;-70
2022/03/21 00:16:05;;;;;;;352.00;90.38;;;;;;;3.06;44.14;101549.28;341213;28;1328;-70
2022/03/21 00:16:15;;;;;;;353.33;92.00;;;;;;;3.07;44.26;101543.28;339002;28;826;-70
2022/03/21 00:16:26;;;;;;;352.05;90.30;;;;;;;3.05;44.08;101545.81;341567;28;1233;-70
2022/03/21 00:16:37;;;;;;;352.75;89.68;;;;;;;3.06;44.26;101549.28;342537;28;1146;-70
2022/03/21 00:16:47;;;;;;;356.65;89.90;;;;;;;3.06;44.21;101544.09;343692;28;1871;-70
2022/03/21 00:16:59;;;;;;;360.50;90.93;;;;;;;3.05;44.64;101551.00;343742;28;922;-70
2022/03/21 00:17:10;;;;;;;359.08;90.05;;;;;;;3.05;44.41;101542.38;342097;28;2600;-70
2022/03/21 00:17:20;;;;;;;354.02;87.97;;;;;;;3.03;43.96;101551.84;342359;28;1099;-70
2022/03/21 00:17:30;;;;;;;352.27;89.03;;;;;;;3.02;44.19;101544.91;342432;28;1012;-70
2022/03/21 00:17:41;;;;;;;351.15;87.75;;;;;;;3.00;44.58;101548.34;341192;29;1017;-70
2022/03/21 00:17:52;;;;;;;351.88;87.75;;;;;;;3.00;44.53;101548.34;339997;29;988;-70
2022/03/21 00:18:03;;;;;;;353.10;88.33;;;;;;;2.98;44.67;101550.03;342515;28;1413;-70
2022/03/21 00:18:14;;;;;;;355.45;89.80;;;;;;;3.00;44.78;101550.06;346176;28;1274;-70
2022/03/21 00:18:25;;;;;;;355.33;89.80;;;;;;;2.99;44.60;101549.19;343715;28;1969;-70
2022/03/21 00:18:38;;;;;;;358.63;90.47;;;;;;;3.01;43.81;101546.63;342194;28;1960;-70
2022/03/21 00:18:49;;;;;;;357.38;89.57;;;;;;;3.02;44.60;101539.75;342143;28;1672;-70
2022/03/21 00:19:02;;;;;;;354.10;89.45;;;;;;;3.04;43.90;101550.97;341267;28;877;-70
2022/03/21 00:19:12;;;;;;;352.67;89.80;;;;;;;3.04;44.35;101545.78;339700;29;1647;-70
2022/03/21 00:19:22;;;;;;;354.93;91.23;;;;;;;3.04;44.36;101550.97;342555;28;1161;-70
2022/03/21 00:19:34;;;;;;;358.08;91.65;;;;;;;3.05;44.65;101547.53;343387;28;1660;-70
2022/03/21 00:19:44;;;;;;;358.90;89.68;;;;;;;3.02;44.04;101543.22;343738;28;1428;-70
2022/03/21 00:19:55;;;;;;;360.05;88.88;;;;;;;3.03;44.79;101549.25;341165;29;1935;-70
2022/03/21 00:20:06;;;;;;;359.60;89.73;;;;;;;3.03;44.06;101541.50;342586;28;873;-70
2022/03/21 00:20:16;;;;;;;357.30;90.25;;;;;;;3.02;43.76;101543.22;342558;28;880;-70
2022/03/21 00:20:27;;;;;;;352.37;89.13;;;;;;;3.03;44.27;101538.91;343858;28;1922;-70
2022/03/21 00:20:37;;;;;;;352.23;85.70;;;;;;;3.05;44.93;101544.94;342521;28;875;-70
2022/03/21 00:20:49;;;;;;;355.85;86.80;;;;;;;3.05;44.15;101547.53;343718;28;1935;-70
2022/03/21 00:20:59;;;;;;;354.80;86.20;;;;;;;3.05;44.93;101542.38;339902;28;1466;-70
2022/03/21 00:21:09;;;;;;;354.53;87.63;;;;;;;3.05;44.46;101542.38;339969;28;915;-70
2022/03/21 00:21:20;;;;;;;353.57;89.30;;;;;;;3.05;44.84;101544.94;340699;28;984;-70
2022/03/21 00:21:30;;;;;;;354.50;91.47;;;;;;;3.03;44.47;101539.78;341621;28;1633;-69
2022/03/21 00:21:41;;;;;;;353.30;90.40;;;;;;;3.03;44.46;101544.09;339898;29;939;-69
2022/03/21 00:21:51;;;;;;;351.50;87.73;;;;;;;3.03;45.02;101546.66;342394;28;1374;-69
2022/03/21 00:22:02;;;;;;;352.03;86.50;;;;;;;3.02;44.32;101547.50;342607;28;2494;-69
2022/03/21 00:22:12;;;;;;;352.95;86.70;;;;;;;3.03;44.14;101544.09;344144;28;1746;-69
2022/03/21 00:22:22;;;;;;;355.55;88.90;;;;;;;3.04;44.99;101540.63;341157;29;1515;-69
2022/03/21 00:22:33;;;;;;;356.77;90.00;;;;;;;3.05;45.18;101539.78;342159;28;1953;-69
2022/03/21 00:22:44;;;;;;;357.50;89.50;;;;;;;3.05;44.69;101542.38;342309;28;1247;-69
2022/03/21 00:22:54;;;;;;;357.10;88.50;;;;;;;3.05;44.68;101539.78;344936;28;1983;-69
2022/03/21 00:23:04;;;;;;;352.70;86.32;;;;;;;3.07;44.27;101538.09;345086;28;1080;-69
2022/03/21 00:23:17;;;;;;;352.87;87.70;;;;;;;3.08;44.44;101537.25;345279;28;2209;-69
2022/03/21 00:23:31;;;;;;;352.67;87.50;;;;;;;3.09;44.74;101539.00;343426;28;2530;-69
2022/03/21 00:23:42;;;;;;;353.95;87.40;;;;;;;3.09;44.99;101539.00;341654;28;1939;-69
2022/03/21 00:23:52;;;;;;;353.85;88.63;;;;;;;3.08;44.90;101527.78;342025;28;1873;-69
2022/03/21 00:24:03;;;;;;;354.07;88.23;;;;;;;3.06;44.23;101534.63;345141;28;1360;-69
2022/03/21 00:24:13;;;;;;;356.15;89.78;;;;;;;3.06;44.63;101538.94;342089;28;1480;-69
2022/03/21 00:24:24;;;;;;;356.63;90.03;;;;;;;3.07;44.32;101538.09;342539;28;916;-69
2022/03/21 00:24:35;;;;;;;356.87;90.47;;;;;;;3.09;44.59;101539.00;342482;28;1679;-69
2022/03/21 00:24:45;;;;;;;355.88;90.93;;;;;;;3.09;45.15;101537.28;343777;28;1302;-69
2022/03/21 00:24:56;;;;;;;352.73;88.10;;;;;;;3.10;44.97;101538.16;341019;28;1739;-69
2022/03/21 00:25:08;;;;;;;351.60;85.85;;;;;;;3.08;44.75;101542.44;344268;28;1511;-69
2022/03/21 00:25:18;;;;;;;351.55;84.97;;;;;;;3.08;45.07;101537.25;345087;28;865;-69
2022/03/21 00:25:29;;;;;;;352.90;87.47;;;;;;;3.07;44.38;101530.34;343259;28;1771;-69
2022/03/21 00:25:39;;;;;;;351.35;87.32;;;;;;;3.04;45.11;101535.44;341102;28;1371;-69
2022/03/21 00:25:50;;;;;;;351.30;87.60;;;;;;;3.06;44.66;101528.59;340676;29;2327;-69
2022/03/21 00:26:01;;;;;;;350.40;86.23;;;;;;;3.06;44.57;101536.34;341294;29;968;-69
2022/03/21 00:26:11;;;;;;;353.58;88.18;;;;;;;3.05;44.77;101537.19;339275;28;1440;-69
2022/03/21 00:26:21;;;;;;;352.53;89.63;;;;;;;3.04;44.90;101530.28;340984;28;1152;-70
2022/03/21 00:26:32;;;;;;;355.05;89.63;;;;;;;3.03;44.38;101531.16;342920;28;1616;-70
2022/03/21 00:26:42;;;;;;;353.65;87.53;;;;;;;3.02;44.65;101537.16;343815;28;992;-70
2022/03/21 00:26:53;;;;;;;355.50;88.07;;;;;;;3.00;44.86;101531.97;342345;28;1846;-70
2022/03/21 00:27:05;;;;;;;355.48;88.47;;;;;;;3.02;44.35;101534.56;340077;29;1284;-70
2022/03/21 00:27:15;;;;;;;355.20;90.07;;;;;;;3.05;44.59;101534.59;342376;28;1826;-70
2022/03/21 00:27:26;;;;;;;352.47;87.90;;;;;;;3.04;45.10;101536.31;342583;28;1549;-70
2022/03/21 00:27:36;;;;;;;351.90;88.28;;;;;;;3.05;44.78;101532.03;343725;28;1449;-70
2022/03/21 00:27:47;;;;;;;351.57;87.20;;;;;;;3.04;44.48;101528.56;343852;28;1730;-70
2022/03/21 00:27:58;;;;;;;353.10;89.00;;;;;;;3.03;45.15;101536.31;341262;29;963;-70
2022/03/21 00:28:08;;;;;;;354.17;89.32;;;;;;;3.04;45.08;101530.28;341312;28;1647;-70
2022/03/21 00:28:19;;;;;;;355.58;89.57;;;;;;;3.05;44.54;101534.59;340989;29;1066;-70
2022/03/21 00:28:29;;;;;;;355.87;89.30;;;;;;;3.04;44.91;101527.69;340171;28;1656;-70
2022/03/21 00:28:40;;;;;;;358.08;92.75;;;;;;;3.03;44.64;101526.84;341223;29;907;-70
2022/03/21 00:28:50;;;;;;;357.37;92.13;;;;;;;3.04;44.58;101525.09;342249;28;2439;-70
2022/03/21 00:29:01;;;;;;;355.00;91.13;;;;;;;3.03;44.56;101528.56;342194;28;1144;-70
2022/03/21 00:29:11;;;;;;;352.07;87.33;;;;;;;3.04;44.76;101525.97;343032;28;2155;-70
2022/03/21 00:29:22;;;;;;;351.02;87.35;;;;;;;3.04;44.81;101525.09;343802;28;1002;-70
2022/03/21 00:29:32;;;;;;;350.88;85.95;;;;;;;3.03;44.67;101532.03;342496;28;1641;-70
2022/03/21 00:29:43;;;;;;;350.37;86.83;;;;;;;3.05;44.72;101527.72;341102;28;1196;-70
2022/03/21 00:29:53;;;;;;;351.10;89.10;;;;;;;3.06;44.78;101523.41;341132;29;2103;-70
2022/03/21 00:30:05;;;;;;;356.17;90.87;;;;;;;3.06;44.40;101523.41;341231;29;972;-70
2022/03/21 00:30:15;;;;;;;355.65;89.53;;;;;;;3.06;44.55;101521.72;343663;28;1699;-70
2022/03/21 00:30:26;;;;;;;352.77;88.03;;;;;;;3.08;44.38;101532.97;343683;28;1204;-69
2022/03/21 00:30:38;;;;;;;349.15;87.25;;;;;;;3.07;44.25;101526.03;341078;29;1497;-69
2022/03/21 00:30:48;;;;;;;348.92;88.28;;;;;;;3.06;44.57;101523.41;341185;29;1802;-69
2022/03/21 00:30:59;;;;;;;348.00;86.78;;;;;;;3.06;44.41;101518.25;343845;28;909;-69
2022/03/21 00:31:09;;;;;;;351.50;89.33;;;;;;;3.07;44.56;101525.16;341402;28;1246;-70
2022/03/21 00:31:20;;;;;;;352.65;89.80;;;;;;;3.09;44.49;101526.94;339344;28;1444;-70
2022/03/21 00:31:30;;;;;;;353.03;89.13;;;;;;;3.11;44.77;101526.97;341577;28;1848;-70
2022/03/21 00:31:40;;;;;;;353.73;89.35;;;;;;;3.12;44.18;101524.41;341805;28;2825;-70
2022/03/21 00:31:51;;;;;;;355.63;89.20;;;;;;;3.12;43.96;101526.13;340164;29;1567;-70
2022/03/21 00:32:05;;;;;;;355.50;89.85;;;;;;;3.10;44.04;101525.22;339891;29;976;-70
2022/03/21 00:32:16;;;;;;;354.90;88.05;;;;;;;3.12;44.04;101526.13;339727;29;985;-70
2022/03/21 00:32:26;;;;;;;352.77;86.68;;;;;;;3.09;43.93;101526.06;342344;28;1303;-70
2022/03/21 00:32:37;;;;;;;352.03;87.17;;;;;;;3.08;44.26;101517.44;343876;28;837;-70
2022/03/21 00:32:48;;;;;;;349.27;87.15;;;;;;;3.08;44.16;101522.63;343394;28;1874;-70
2022/03/21 00:32:58;;;;;;;351.73;87.93;;;;;;;3.09;43.88;101520.91;343860;28;963;-70
2022/03/21 00:33:10;;;;;;;351.42;87.07;;;;;;;3.10;43.96;101522.66;342771;28;988;-70
2022/03/21 00:33:20;;;;;;;353.25;88.10;;;;;;;3.12;43.98;101523.56;344982;28;1401;-70
2022/03/21 00:33:31;;;;;;;351.95;89.40;;;;;;;3.13;43.63;101520.13;343533;28;1698;-70
2022/03/21 00:33:41;;;;;;;349.23;88.33;;;;;;;3.15;43.53;101523.59;343638;28;1271;-70
2022/03/21 00:33:52;;;;;;;351.60;88.25;;;;;;;3.15;43.31;101521.03;343701;28;1747;-70
2022/03/21 00:34:02;;;;;;;354.50;89.40;;;;;;;3.15;43.80;101523.59;345111;28;1191;-70
2022/03/21 00:34:13;;;;;;;353.63;89.10;;;;;;;3.16;44.19;101523.66;343516;28;1660;-70
2022/03/21 00:34:23;;;;;;;349.05;87.38;;;;;;;3.16;43.21;101515.88;342439;28;960;-70
2022/03/21 00:34:34;;;;;;;348.30;85.93;;;;;;;3.18;43.75;101518.50;340777;28;1746;-70
2022/03/21 00:34:45;;;;;;;349.40;86.33;;;;;;;3.18;44.00;101528.84;343604;28;974;-70
2022/03/21 00:34:55;;;;;;;351.08;85.60;;;;;;;3.18;43.91;101518.50;345031;28;1883;-70
2022/03/21 00:35:07;;;;;;;349.60;85.13;;;;;;;3.18;43.78;101514.19;345288;28;977;-70
2022/03/21 00:35:17;;;;;;;350.55;86.07;;;;;;;3.20;44.09;101532.34;343819;28;978;-70
2022/03/21 00:35:28;;;;;;;354.50;87.57;;;;;;;3.19;43.80;101528.00;340529;29;2246;-70
2022/03/21 00:35:38;;;;;;;353.88;86.20;;;;;;;3.19;43.92;101528.88;342120;28;2421;-70
2022/03/21 00:35:50;;;;;;;352.63;86.95;;;;;;;3.19;43.72;101526.28;342389;28;1005;-70
2022/03/21 00:36:01;;;;;;;350.25;87.43;;;;;;;3.19;43.66;101530.59;342484;28;960;-70
2022/03/21 00:36:11;;;;;;;350.73;87.63;;;;;;;3.18;43.49;101526.25;339476;28;1267;-70
2022/03/21 00:36:22;;;;;;;349.73;87.72;;;;;;;3.17;43.72;101517.63;336864;29;1354;-70
2022/03/21 00:36:33;;;;;;;347.92;87.00;;;;;;;3.17;44.12;101527.09;341258;28;2319;-70
2022/03/21 00:36:44;;;;;;;349.50;86.68;;;;;;;3.17;43.88;101527.97;343001;28;1387;-70
2022/03/21 00:36:55;;;;;;;354.13;85.40;;;;;;;3.16;44.03;101525.34;344726;28;1934;-70
2022/03/21 00:37:07;;;;;;;354.30;84.43;;;;;;;3.16;43.58;101525.34;341092;29;1020;-70
2022/03/21 00:37:18;;;;;;;355.60;86.55;;;;;;;3.16;44.25;101527.94;342351;28;985;-70
2022/03/21 00:37:28;;;;;;;353.53;88.07;;;;;;;3.15;43.76;101527.06;344946;28;1168;-70
2022/03/21 00:37:39;;;;;;;353.10;86.97;;;;;;;3.17;43.60;101527.09;343559;28;809;-70
2022/03/21 00:37:49;;;;;;;350.23;85.87;;;;;;;3.16;43.90;101521.06;343781;28;1881;-71
2022/03/21 00:37:59;;;;;;;347.95;84.88;;;;;;;3.16;44.11;101520.19;342449;28;1312;-70
2022/03/21 00:38:14;;;;;;;348.23;85.30;;;;;;;3.15;43.88;101524.47;344439;28;1972;-70
2022/03/21 00:38:24;;;;;;;352.35;86.38;;;;;;;3.17;44.14;101527.09;346349;28;1001;-70
2022/03/21 00:38:38;;;;;;;353.13;88.30;;;;;;;3.18;43.96;101529.72;344997;28;1863;-70
2022/03/21 00:38:49;;;;;;;350.95;89.10;;;;;;;3.18;43.79;101527.13;343635;28;1978;-70
2022/03/21 00:38:59;;;;;;;351.35;89.55;;;;;;;3.18;43.58;101531.44;345174;28;913;-70
2022/03/21 00:39:09;;;;;;;349.80;88.63;;;;;;;3.19;44.30;101520.25;343591;28;1693;-70
2022/03/21 00:39:20;;;;;;;349.63;89.10;;;;;;;3.19;43.70;101528.00;343664;28;1312;-70
2022/03/21 00:39:30;;;;;;;348.57;88.47;;;;;;;3.18;43.62;101529.72;341013;28;1335;-70
2022/03/21 00:39:41;;;;;;;349.90;88.97;;;;;;;3.17;43.37;101527.97;341055;29;1238;-70
2022/03/21 00:39:51;;;;;;;352.30;88.60;;;;;;;3.14;43.35;101522.75;340984;29;1766;-70
2022/03/21 00:40:02;;;;;;;351.40;86.18;;;;;;;3.14;44.21;101527.03;341042;29;923;-70
2022/03/21 00:40:14;;;;;;;352.48;87.43;;;;;;;3.16;44.27;101530.53;342642;28;1305;-70
2022/03/21 00:40:24;;;;;;;351.50;88.75;;;;;;;3.16;44.17;101533.13;342463;28;1042;-70
2022/03/21 00:40:35;;;;;;;349.63;87.97;;;;;;;3.15;44.16;101526.19;346163;28;1693;-70
2022/03/21 00:40:46;;;;;;;349.37;87.37;;;;;;;3.15;43.65;101531.38;344989;28;1302;-70
2022/03/21 00:40:57;;;;;;;348.17;86.55;;;;;;;3.13;43.63;101525.28;341182;29;1344;-70
2022/03/21 00:41:07;;;;;;;349.85;88.18;;;;;;;3.13;43.67;101531.34;341961;28;916;-70
2022/03/21 00:41:18;;;;;;;350.57;88.63;;;;;;;3.11;44.19;101532.16;341729;28;1546;-70
2022/03/21 00:41:31;;;;;;;350.60;88.70;;;;;;;3.11;43.81;101532.16;344088;28;1826;-70
2022/03/21 00:41:42;;;;;;;348.92;86.30;;;;;;;3.13;44.24;101530.47;342352;28;1035;-70
2022/03/21 00:41:52;;;;;;;347.63;84.23;;;;;;;3.12;43.98;101528.72;344097;28;1886;-70
2022/03/21 00:42:04;;;;;;;348.25;85.53;;;;;;;3.14;43.95;101537.38;343602;28;1316;-70
2022/03/21 00:42:14;;;;;;;348.98;86.18;;;;;;;3.16;43.65;101533.13;343557;28;1831;-70
2022/03/21 00:42:25;;;;;;;349.30;88.05;;;;;;;3.15;44.44;101529.66;343863;28;880;-70
2022/03/21 00:42:37;;;;;;;348.85;86.43;;;;;;;3.13;44.39;101528.75;343623;28;1382;-70
2022/03/21 00:42:48;;;;;;;348.80;84.30;;;;;;;3.13;44.30;101533.06;339617;29;1610;-70
2022/03/21 00:42:58;;;;;;;349.65;83.60;;;;;;;3.14;44.39;101533.09;342446;28;889;-70
2022/03/21 00:43:09;;;;;;;350.93;86.17;;;;;;;3.14;44.51;101527.03;342171;28;1803;-70
2022/03/21 00:43:23;;;;;;;352.15;88.32;;;;;;;3.17;44.22;101534.88;343633;28;1122;-70
2022/03/21 00:43:34;;;;;;;352.58;88.07;;;;;;;3.17;44.20;101537.44;341035;29;1923;-70
2022/03/21 00:43:44;;;;;;;351.23;86.90;;;;;;;3.18;44.02;101534.91;345002;28;1197;-70
2022/03/21 00:43:55;;;;;;;351.70;87.75;;;;;;;3.19;43.76;101533.19;345059;28;1772;-70
2022/03/21 00:44:05;;;;;;;353.00;87.37;;;;;;;3.20;43.96;101537.50;345100;28;933;-69
2022/03/21 00:44:15;;;;;;;351.60;86.23;;;;;;;3.18;44.50;101529.72;345027;28;2091;-69
2022/03/21 00:44:26;;;;;;;350.03;85.43;;;;;;;3.18;44.21;101536.59;346013;28;2068;-69
2022/03/21 00:44:37;;;;;;;348.60;86.67;;;;;;;3.16;43.74;101530.53;346486;28;992;-69
2022/03/21 00:44:48;;;;;;;350.73;88.80;;;;;;;3.17;44.46;101532.28;342234;28;1881;-69
2022/03/21 00:44:59;;;;;;;351.63;88.50;;;;;;;3.17;43.99;101533.16;343665;28;908;-69
2022/03/21 00:45:17;;;;;;;351.57;88.73;;;;;;;3.19;44.10;101528.00;344174;28;1168;-69
2022/03/21 00:45:27;;;;;;;355.92;87.70;;;;;;;3.19;44.20;101531.47;343462;28;2095;-69
2022/03/21 00:45:38;;;;;;;356.77;88.60;;;;;;;3.19;43.94;101531.47;343436;28;1999;-69
2022/03/21 00:45:53;;;;;;;352.90;87.67;;;;;;;3.19;43.83;101534.06;342332;28;1936;-69
2022/03/21 00:46:03;;;;;;;350.60;86.68;;;;;;;3.19;44.38;101530.59;344191;28;2017;-69
2022/03/21 00:46:14;;;;;;;352.45;85.97;;;;;;;3.21;43.82;101532.38;340037;28;1348;-69
2022/03/21 00:46:24;;;;;;;352.80;88.47;;;;;;;3.21;43.58;101526.31;340642;28;931;-69
2022/03/21 00:46:35;;;;;;;352.23;89.65;;;;;;;3.21;43.66;101529.78;343705;28;1875;-69
2022/03/21 00:46:45;;;;;;;349.33;88.17;;;;;;;3.22;44.16;101530.66;341068;29;868;-69
2022/03/21 00:46:56;;;;;;;350.80;86.15;;;;;;;3.22;43.79;101526.34;343580;28;1334;-69
2022/03/21 00:47:06;;;;;;;350.60;85.90;;;;;;;3.24;43.87;101534.16;344834;28;1541;-69
2022/03/21 00:47:17;;;;;;;350.23;86.90;;;;;;;3.24;43.87;101528.97;343648;28;893;-69
2022/03/21 00:47:27;;;;;;;351.27;86.77;;;;;;;3.24;43.68;101528.97;343871;28;1164;-69
2022/03/21 00:47:38;;;;;;;350.95;86.57;;;;;;;3.24;43.84;101531.56;345221;28;905;-69
2022/03/21 00:47:52;;;;;;;351.36;86.66;;;;;;;3.26;44.09;101532.47;341126;29;1993;-69
2022/03/21 00:48:02;;;;;;;350.10;86.63;;;;;;;3.23;43.80;101528.09;342379;28;956;-69
2022/03/21 00:48:13;;;;;;;351.27;85.50;;;;;;;3.23;44.05;101532.41;342588;28;1674;-69
2022/03/21 00:48:27;;;;;;;350.98;85.03;;;;;;;3.23;43.68;101528.09;343596;28;1116;-69
2022/03/21 00:48:37;;;;;;;349.63;85.38;;;;;;;3.22;44.50;101525.47;342408;28;881;-69
2022/03/21 00:48:48;;;;;;;348.10;85.30;;;;;;;3.23;44.44;101527.22;342382;28;1721;-69
2022/03/21 00:48:58;;;;;;;347.13;84.93;;;;;;;3.21;43.90;101523.75;342455;28;901;-69
2022/03/21 00:49:12;;;;;;;348.02;86.25;;;;;;;3.24;44.50;101528.97;341269;28;985;-69
2022/03/21 00:49:22;;;;;;;349.35;87.93;;;;;;;3.22;44.38;101528.94;342340;28;913;-69
2022/03/21 00:49:32;;;;;;;348.65;86.63;;;;;;;3.20;44.14;101524.56;344148;28;1862;-69
2022/03/21 00:49:44;;;;;;;347.83;87.37;;;;;;;3.19;44.05;101525.41;342445;28;1426;-69
2022/03/21 00:49:54;;;;;;;349.63;88.10;;;;;;;3.20;44.01;101529.75;343807;28;885;-69
2022/03/21 00:50:05;;;;;;;350.00;88.67;;;;;;;3.21;44.30;101532.38;344848;28;1909;-69
2022/03/21 00:50:16;;;;;;;350.64;88.20;;;;;;;3.21;44.81;101534.09;342266;28;1997;-69
2022/03/21 00:50:27;;;;;;;352.23;88.38;;;;;;;3.19;44.16;101530.59;343543;28;1764;-69
2022/03/21 00:50:38;;;;;;;355.07;89.63;;;;;;;3.20;44.32;101532.34;343718;28;904;-69
2022/03/21 00:50:48;;;;;;;352.80;88.95;;;;;;;3.19;44.86;101528.88;342806;28;1815;-69
2022/03/21 00:50:58;;;;;;;351.73;88.10;;;;;;;3.17;44.56;101522.81;339470;29;1883;-69
2022/03/21 00:51:10;;;;;;;350.00;86.27;;;;;;;3.19;44.37;101522.84;338995;29;878;-69